UAE9657 FAOR-HKJK
Flight info
| Callsign | UAE9657 |
|---|---|
| Flight time | N/A |
| Altitude | 39000 |
| Route | VASUR3B VASUR UZ23 IMKUP UQ1 TAVLA UM215 VBU UL437 VHA UP312 MAKIR/N0479F410 UP312 LOSIN DCT EPTAN UP312 EVATO EVATO2P |
| Aircraft | B772/H-SDE2E3FGHIJ5LORVWXY/LB1D1 |
Departure
| Time | N/A |
|---|---|
| Airport | O.R. Tambo International Airport (FAOR) |
Arrival
| Time | 2026-04-28 17:40 |
|---|---|
| Airport | Jomo Kenyatta International Airport (HKJK) |
| Time | Latitude | Longitude | Altitude | Speed | Heading |
|---|---|---|---|---|---|
| 2026-04-28 14:10 | -23.15616 | 28.28013 | 37223 ft | 472 kts | 355° |
| 2026-04-28 14:10 | -23.12329 | 28.28095 | 37359 ft | 472 kts | 356° |
| 2026-04-28 14:11 | -23.09054 | 28.28178 | 37487 ft | 472 kts | 356° |
| 2026-04-28 14:11 | -23.05767 | 28.28260 | 37537 ft | 473 kts | 356° |
| 2026-04-28 14:11 | -22.99161 | 28.28423 | 37596 ft | 476 kts | 356° |
| 2026-04-28 14:12 | -22.92511 | 28.28577 | 37643 ft | 479 kts | 355° |
| 2026-04-28 14:12 | -22.85847 | 28.28718 | 37633 ft | 479 kts | 356° |
| 2026-04-28 14:13 | -22.79197 | 28.28840 | 37631 ft | 482 kts | 355° |
| 2026-04-28 14:13 | -22.72531 | 28.28954 | 37567 ft | 476 kts | 356° |
| 2026-04-28 14:14 | -22.65903 | 28.29231 | 37693 ft | 476 kts | 357° |
| 2026-04-28 14:14 | -22.62597 | 28.29366 | 37846 ft | 475 kts | 358° |
| 2026-04-28 14:14 | -22.61527 | 28.29434 | 37856 ft | 473 kts | 359° |
| 2026-04-28 14:15 | -22.56405 | 28.30129 | 37875 ft | 479 kts | 4° |
| 2026-04-28 14:15 | -22.49785 | 28.31260 | 37961 ft | 482 kts | 3° |
| 2026-04-28 14:16 | -22.43138 | 28.32226 | 38135 ft | 481 kts | 1° |
| 2026-04-28 14:16 | -22.36528 | 28.33039 | 38274 ft | 482 kts | 1° |
| 2026-04-28 14:17 | -22.29854 | 28.33905 | 38390 ft | 483 kts | 2° |
| 2026-04-28 14:17 | -22.23186 | 28.34834 | 38512 ft | 484 kts | 2° |
| 2026-04-28 14:18 | -22.16489 | 28.35786 | 38593 ft | 486 kts | 2° |
| 2026-04-28 14:18 | -22.09777 | 28.36735 | 38652 ft | 487 kts | 2° |
| 2026-04-28 14:19 | -22.03112 | 28.37672 | 38783 ft | 486 kts | 3° |
| 2026-04-28 14:19 | -21.98624 | 28.38298 | 38810 ft | 487 kts | 3° |
| 2026-04-28 14:20 | -21.93163 | 28.39061 | 38804 ft | 489 kts | 3° |
| 2026-04-28 14:20 | -21.86410 | 28.40007 | 38912 ft | 488 kts | 3° |
| 2026-04-28 14:21 | -21.79675 | 28.40951 | 39014 ft | 488 kts | 3° |
| 2026-04-28 14:21 | -21.72994 | 28.41884 | 39098 ft | 487 kts | 3° |
| 2026-04-28 14:22 | -21.66260 | 28.42822 | 39142 ft | 488 kts | 3° |
| 2026-04-28 14:22 | -21.59513 | 28.43746 | 39145 ft | 490 kts | 3° |
| 2026-04-28 14:23 | -21.52742 | 28.44642 | 39127 ft | 491 kts | 3° |
| 2026-04-28 14:23 | -21.45998 | 28.45531 | 39140 ft | 491 kts | 3° |
| 2026-04-28 14:24 | -21.39209 | 28.46430 | 39131 ft | 491 kts | 4° |
| 2026-04-28 14:24 | -21.34669 | 28.47032 | 39134 ft | 491 kts | 4° |
| 2026-04-28 14:25 | -21.29429 | 28.47730 | 39137 ft | 491 kts | 4° |
| 2026-04-28 14:25 | -21.22647 | 28.48632 | 39138 ft | 491 kts | 4° |
| 2026-04-28 14:26 | -21.15920 | 28.49525 | 39140 ft | 490 kts | 3° |
| 2026-04-28 14:26 | -21.09164 | 28.50419 | 39145 ft | 489 kts | 4° |
| 2026-04-28 14:27 | -21.02418 | 28.51311 | 39142 ft | 488 kts | 4° |
| 2026-04-28 14:27 | -20.95686 | 28.52201 | 39149 ft | 487 kts | 4° |
| 2026-04-28 14:28 | -20.88962 | 28.53090 | 39156 ft | 486 kts | 4° |
| 2026-04-28 14:28 | -20.82293 | 28.53970 | 39148 ft | 486 kts | 4° |
| 2026-04-28 14:29 | -20.75589 | 28.54852 | 39175 ft | 485 kts | 4° |
| 2026-04-28 14:29 | -20.71103 | 28.55444 | 39176 ft | 485 kts | 4° |
| 2026-04-28 14:30 | -20.65847 | 28.56137 | 39185 ft | 485 kts | 4° |
| 2026-04-28 14:30 | -20.59197 | 28.57012 | 39185 ft | 485 kts | 4° |
| 2026-04-28 14:31 | -20.52501 | 28.57891 | 39185 ft | 485 kts | 4° |
| 2026-04-28 14:31 | -20.45806 | 28.58769 | 39190 ft | 484 kts | 4° |
| 2026-04-28 14:32 | -20.39116 | 28.59648 | 39197 ft | 484 kts | 4° |
| 2026-04-28 14:32 | -20.32430 | 28.60525 | 39186 ft | 484 kts | 4° |
| 2026-04-28 14:33 | -20.25785 | 28.61396 | 39180 ft | 484 kts | 4° |
| 2026-04-28 14:33 | -20.19098 | 28.62270 | 39172 ft | 484 kts | 5° |
| 2026-04-28 14:34 | -20.09065 | 28.63583 | 39158 ft | 484 kts | 5° |
| 2026-04-28 14:35 | -20.05825 | 28.64190 | 39142 ft | 481 kts | 14° |
| 2026-04-28 14:35 | -20.02752 | 28.65516 | 39169 ft | 485 kts | 27° |
| 2026-04-28 14:35 | -19.99927 | 28.67498 | 39175 ft | 489 kts | 37° |
| 2026-04-28 14:36 | -19.95165 | 28.72688 | 39168 ft | 492 kts | 46° |
| 2026-04-28 14:36 | -19.90496 | 28.78020 | 39167 ft | 493 kts | 43° |
| 2026-04-28 14:37 | -19.86655 | 28.82004 | 39184 ft | 494 kts | 42° |
| 2026-04-28 14:37 | -19.81720 | 28.87082 | 39193 ft | 496 kts | 42° |
| 2026-04-28 14:38 | -19.76817 | 28.92244 | 39195 ft | 498 kts | 43° |
| 2026-04-28 14:38 | -19.71962 | 28.97429 | 39191 ft | 499 kts | 43° |
| 2026-04-28 14:39 | -19.67069 | 29.02660 | 39196 ft | 500 kts | 43° |
| 2026-04-28 14:39 | -19.62191 | 29.07858 | 39188 ft | 500 kts | 43° |
| 2026-04-28 14:40 | -19.59980 | 29.10211 | 39190 ft | 500 kts | 43° |
| 2026-04-28 14:40 | -19.55066 | 29.15432 | 39196 ft | 500 kts | 43° |
| 2026-04-28 14:41 | -19.50184 | 29.20613 | 39195 ft | 500 kts | 43° |
| 2026-04-28 14:41 | -19.45292 | 29.25803 | 39188 ft | 499 kts | 43° |
| 2026-04-28 14:42 | -19.40399 | 29.30989 | 39187 ft | 499 kts | 43° |
| 2026-04-28 14:42 | -19.35470 | 29.36210 | 39187 ft | 498 kts | 43° |
| 2026-04-28 14:43 | -19.30590 | 29.41373 | 39192 ft | 497 kts | 43° |
| 2026-04-28 14:43 | -19.25702 | 29.46540 | 39193 ft | 496 kts | 43° |
| 2026-04-28 14:44 | -19.20832 | 29.51683 | 39193 ft | 496 kts | 43° |
| 2026-04-28 14:44 | -19.15966 | 29.56817 | 39156 ft | 495 kts | 43° |
| 2026-04-28 14:45 | -19.13639 | 29.59270 | 39158 ft | 495 kts | 43° |
| 2026-04-28 14:45 | -19.08753 | 29.64421 | 39162 ft | 494 kts | 43° |
| 2026-04-28 14:46 | -19.03893 | 29.69539 | 39148 ft | 494 kts | 43° |
| 2026-04-28 14:46 | -18.99035 | 29.74652 | 39153 ft | 493 kts | 43° |
| 2026-04-28 14:47 | -18.94212 | 29.79724 | 39153 ft | 493 kts | 43° |
| 2026-04-28 14:47 | -18.89595 | 29.85097 | 39149 ft | 494 kts | 49° |
| 2026-04-28 14:48 | -18.85292 | 29.90780 | 39142 ft | 495 kts | 50° |
| 2026-04-28 14:48 | -18.81017 | 29.96434 | 39145 ft | 495 kts | 49° |
| 2026-04-28 14:49 | -18.76642 | 30.02053 | 39151 ft | 494 kts | 49° |
| 2026-04-28 14:49 | -18.72258 | 30.07621 | 39142 ft | 494 kts | 49° |
| 2026-04-28 14:50 | -18.71529 | 30.08547 | 39144 ft | 494 kts | 49° |
| 2026-04-28 14:52 | -18.67712 | 30.13405 | 39144 ft | 494 kts | 49° |
| 2026-04-28 14:52 | -18.63322 | 30.19002 | 39149 ft | 494 kts | 49° |
| 2026-04-28 14:53 | -18.58976 | 30.24553 | 39153 ft | 494 kts | 49° |
| 2026-04-28 14:53 | -18.54625 | 30.30154 | 39159 ft | 494 kts | 49° |
| 2026-04-28 14:54 | -18.50265 | 30.35772 | 39154 ft | 494 kts | 49° |
| 2026-04-28 14:54 | -18.45923 | 30.41356 | 39157 ft | 494 kts | 49° |
| 2026-04-28 14:55 | -18.45206 | 30.42277 | 39156 ft | 494 kts | 49° |
| 2026-04-28 14:56 | -18.42845 | 30.45307 | 39149 ft | 494 kts | 49° |
| 2026-04-28 14:56 | -18.38480 | 30.50904 | 39161 ft | 494 kts | 49° |
| 2026-04-28 14:57 | -18.34144 | 30.56458 | 39162 ft | 494 kts | 49° |
| 2026-04-28 14:57 | -18.29778 | 30.62050 | 39168 ft | 495 kts | 49° |
| 2026-04-28 14:58 | -18.25411 | 30.67638 | 39171 ft | 495 kts | 49° |
| 2026-04-28 14:58 | -18.21030 | 30.73237 | 39168 ft | 495 kts | 49° |
| 2026-04-28 14:59 | -18.16659 | 30.78821 | 39173 ft | 495 kts | 49° |
| 2026-04-28 14:59 | -18.12307 | 30.84373 | 39172 ft | 495 kts | 49° |
| 2026-04-28 15:00 | -18.10609 | 30.86538 | 39174 ft | 495 kts | 49° |
| 2026-04-28 15:00 | -18.06224 | 30.92127 | 39176 ft | 495 kts | 49° |
| 2026-04-28 15:01 | -18.01840 | 30.97708 | 39184 ft | 495 kts | 50° |
| 2026-04-28 15:01 | -17.97456 | 31.03289 | 39185 ft | 495 kts | 49° |
| 2026-04-28 15:02 | -17.93040 | 31.08788 | 39165 ft | 489 kts | 45° |
| 2026-04-28 15:02 | -17.90477 | 31.11094 | 39191 ft | 485 kts | 31° |
| 2026-04-28 15:02 | -17.87533 | 31.12696 | 39180 ft | 483 kts | 19° |
| 2026-04-28 15:03 | -17.81050 | 31.14415 | 39194 ft | 481 kts | 9° |
| 2026-04-28 15:03 | -17.74520 | 31.15937 | 39185 ft | 483 kts | 14° |
| 2026-04-28 15:04 | -17.68032 | 31.17840 | 39175 ft | 486 kts | 15° |
| 2026-04-28 15:04 | -17.61501 | 31.19742 | 39164 ft | 488 kts | 14° |
| 2026-04-28 15:05 | -17.58720 | 31.20519 | 39146 ft | 489 kts | 14° |
| 2026-04-28 15:05 | -17.52089 | 31.22319 | 39145 ft | 491 kts | 13° |
| 2026-04-28 15:06 | -17.45465 | 31.24091 | 39133 ft | 492 kts | 13° |
| 2026-04-28 15:06 | -17.38826 | 31.25872 | 39132 ft | 493 kts | 13° |
| 2026-04-28 15:07 | -17.32182 | 31.27660 | 39120 ft | 493 kts | 14° |
| 2026-04-28 15:07 | -17.25588 | 31.29437 | 39118 ft | 493 kts | 14° |
| 2026-04-28 15:08 | -17.18951 | 31.31224 | 39094 ft | 492 kts | 13° |
| 2026-04-28 15:08 | -17.12339 | 31.33001 | 37255 ft | 505 kts | 13° |
| 2026-04-28 15:08 | -17.08828 | 31.33950 | 35931 ft | 524 kts | 13° |
| 2026-04-28 15:09 | -17.05334 | 31.34898 | 35639 ft | 511 kts | 13° |
| 2026-04-28 15:09 | -17.01965 | 31.35806 | 35832 ft | 489 kts | 13° |
| 2026-04-28 15:09 | -16.98706 | 31.36678 | 36070 ft | 481 kts | 13° |
| 2026-04-28 15:10 | -16.95834 | 31.37442 | 36219 ft | 479 kts | 13° |
| 2026-04-28 15:10 | -16.92611 | 31.38298 | 36422 ft | 477 kts | 13° |
| 2026-04-28 15:10 | -16.89409 | 31.39151 | 36667 ft | 475 kts | 13° |
| 2026-04-28 15:10 | -16.86210 | 31.40004 | 36907 ft | 473 kts | 13° |
| 2026-04-28 15:11 | -16.83035 | 31.40854 | 37136 ft | 471 kts | 13° |
| 2026-04-28 15:11 | -16.79868 | 31.41702 | 37363 ft | 469 kts | 13° |
| 2026-04-28 15:11 | -16.76718 | 31.42547 | 37625 ft | 466 kts | 13° |
| 2026-04-28 15:11 | -16.73624 | 31.43376 | 37883 ft | 464 kts | 13° |
| 2026-04-28 15:12 | -16.70513 | 31.44210 | 38139 ft | 461 kts | 13° |
| 2026-04-28 15:12 | -16.67412 | 31.45040 | 38392 ft | 458 kts | 13° |
| 2026-04-28 15:12 | -16.64333 | 31.45864 | 38649 ft | 455 kts | 13° |
| 2026-04-28 15:12 | -16.61270 | 31.46683 | 38845 ft | 454 kts | 13° |
| 2026-04-28 15:13 | -16.58210 | 31.47501 | 38878 ft | 455 kts | 13° |
| 2026-04-28 15:13 | -16.52060 | 31.49142 | 39008 ft | 457 kts | 13° |
| 2026-04-28 15:14 | -16.45908 | 31.50784 | 38997 ft | 462 kts | 13° |
| 2026-04-28 15:14 | -16.39635 | 31.52458 | 38993 ft | 467 kts | 13° |
| 2026-04-28 15:15 | -16.36704 | 31.53239 | 38991 ft | 470 kts | 13° |
| 2026-04-28 15:15 | -16.30349 | 31.54933 | 38975 ft | 474 kts | 13° |
| 2026-04-28 15:16 | -16.23928 | 31.56643 | 38976 ft | 478 kts | 13° |
| 2026-04-28 15:16 | -16.17502 | 31.58345 | 38955 ft | 482 kts | 13° |
| 2026-04-28 15:17 | -16.10955 | 31.59915 | 38956 ft | 484 kts | 11° |
| 2026-04-28 15:17 | -16.04347 | 31.61415 | 38941 ft | 487 kts | 11° |
| 2026-04-28 15:18 | -15.97728 | 31.62936 | 38935 ft | 488 kts | 12° |
| 2026-04-28 15:18 | -15.91135 | 31.64476 | 38929 ft | 489 kts | 12° |
| 2026-04-28 15:19 | -15.84500 | 31.66031 | 38933 ft | 488 kts | 12° |
| 2026-04-28 15:19 | -15.77880 | 31.67581 | 38919 ft | 488 kts | 12° |
| 2026-04-28 15:20 | -15.74856 | 31.68287 | 38920 ft | 487 kts | 12° |
| 2026-04-28 15:20 | -15.68256 | 31.69826 | 38915 ft | 486 kts | 11° |
| 2026-04-28 15:21 | -15.61703 | 31.71354 | 38917 ft | 485 kts | 11° |
| 2026-04-28 15:21 | -15.55129 | 31.72887 | 38920 ft | 484 kts | 11° |
| 2026-04-28 15:22 | -15.48579 | 31.74482 | 38928 ft | 484 kts | 13° |
| 2026-04-28 15:22 | -15.42089 | 31.76328 | 38938 ft | 484 kts | 14° |
| 2026-04-28 15:23 | -15.35618 | 31.78228 | 38940 ft | 483 kts | 14° |
| 2026-04-28 15:23 | -15.29181 | 31.80074 | 38952 ft | 483 kts | 14° |
| 2026-04-28 15:24 | -15.22689 | 31.81899 | 38950 ft | 483 kts | 14° |
| 2026-04-28 15:24 | -15.16196 | 31.83716 | 38957 ft | 484 kts | 14° |
| 2026-04-28 15:25 | -15.13140 | 31.84573 | 38961 ft | 484 kts | 14° |
| 2026-04-28 15:25 | -15.06627 | 31.86400 | 38977 ft | 485 kts | 14° |
| 2026-04-28 15:26 | -15.00154 | 31.88216 | 38977 ft | 486 kts | 14° |
| 2026-04-28 15:26 | -14.93626 | 31.90047 | 38978 ft | 486 kts | 14° |
| 2026-04-28 15:27 | -14.87089 | 31.91879 | 38976 ft | 487 kts | 14° |
| 2026-04-28 15:27 | -14.80545 | 31.93712 | 38985 ft | 487 kts | 14° |
| 2026-04-28 15:28 | -14.74037 | 31.95533 | 38984 ft | 488 kts | 14° |
| 2026-04-28 15:28 | -14.67488 | 31.97365 | 38989 ft | 488 kts | 14° |
| 2026-04-28 15:29 | -14.60930 | 31.99198 | 38989 ft | 488 kts | 14° |
| 2026-04-28 15:29 | -14.54371 | 32.01031 | 38987 ft | 488 kts | 14° |
| 2026-04-28 15:30 | -14.51378 | 32.01866 | 38989 ft | 488 kts | 14° |
| 2026-04-28 15:30 | -14.44819 | 32.03698 | 38996 ft | 489 kts | 14° |
| 2026-04-28 15:31 | -14.38255 | 32.05529 | 38998 ft | 489 kts | 14° |
| 2026-04-28 15:31 | -14.31676 | 32.07317 | 38993 ft | 489 kts | 13° |
| 2026-04-28 15:32 | -14.25082 | 32.09036 | 38997 ft | 489 kts | 12° |
| 2026-04-28 15:32 | -14.18531 | 32.10740 | 38999 ft | 489 kts | 13° |
| 2026-04-28 15:33 | -14.11940 | 32.12468 | 39001 ft | 489 kts | 13° |
| 2026-04-28 15:33 | -14.05346 | 32.14203 | 38998 ft | 489 kts | 13° |
| 2026-04-28 15:34 | -13.98748 | 32.15938 | 38993 ft | 489 kts | 13° |
| 2026-04-28 15:34 | -13.92149 | 32.17671 | 38986 ft | 489 kts | 13° |
| 2026-04-28 15:35 | -13.89486 | 32.18369 | 38993 ft | 489 kts | 13° |
| 2026-04-28 15:35 | -13.79590 | 32.20965 | 38987 ft | 489 kts | 13° |
| 2026-04-28 15:36 | -13.72992 | 32.22695 | 38986 ft | 489 kts | 13° |
| 2026-04-28 15:36 | -13.66399 | 32.24423 | 38974 ft | 489 kts | 13° |
| 2026-04-28 15:37 | -13.59845 | 32.26139 | 38972 ft | 489 kts | 13° |
| 2026-04-28 15:37 | -13.54320 | 32.27605 | 38965 ft | 489 kts | 14° |
| 2026-04-28 15:38 | -13.46674 | 32.29724 | 38976 ft | 490 kts | 14° |
| 2026-04-28 15:38 | -13.40093 | 32.31542 | 38965 ft | 490 kts | 14° |
| 2026-04-28 15:39 | -13.33536 | 32.33247 | 38970 ft | 489 kts | 12° |
| 2026-04-28 15:39 | -13.30215 | 32.33997 | 38953 ft | 489 kts | 11° |
| 2026-04-28 15:40 | -13.24401 | 32.35243 | 38955 ft | 489 kts | 11° |
| 2026-04-28 15:40 | -13.17737 | 32.36683 | 38946 ft | 489 kts | 11° |
| 2026-04-28 15:41 | -13.11084 | 32.38168 | 38945 ft | 490 kts | 12° |
| 2026-04-28 15:41 | -13.05552 | 32.39420 | 38936 ft | 490 kts | 12° |
| 2026-04-28 15:42 | -12.98590 | 32.40997 | 38948 ft | 490 kts | 11° |
| 2026-04-28 15:42 | -12.91934 | 32.42498 | 38940 ft | 490 kts | 11° |
| 2026-04-28 15:43 | -12.85278 | 32.43996 | 38939 ft | 490 kts | 11° |
| 2026-04-28 15:43 | -12.78662 | 32.45483 | 38941 ft | 490 kts | 11° |
| 2026-04-28 15:44 | -12.72006 | 32.46979 | 38939 ft | 490 kts | 12° |
| 2026-04-28 15:44 | -12.68677 | 32.47727 | 38941 ft | 490 kts | 11° |
| 2026-04-28 15:45 | -12.63446 | 32.48904 | 38931 ft | 490 kts | 11° |
| 2026-04-28 15:45 | -12.56792 | 32.50398 | 38931 ft | 490 kts | 11° |
| 2026-04-28 15:46 | -12.50179 | 32.51882 | 38931 ft | 490 kts | 11° |
| 2026-04-28 15:46 | -12.43523 | 32.53375 | 38933 ft | 490 kts | 11° |
| 2026-04-28 15:47 | -12.36867 | 32.54867 | 38918 ft | 490 kts | 11° |
| 2026-04-28 15:47 | -12.30210 | 32.56360 | 38919 ft | 490 kts | 11° |
| 2026-04-28 15:48 | -12.23593 | 32.57842 | 38913 ft | 490 kts | 11° |
| 2026-04-28 15:48 | -12.16942 | 32.59349 | 38910 ft | 490 kts | 12° |
| 2026-04-28 15:49 | -12.10327 | 32.61092 | 38912 ft | 491 kts | 14° |
| 2026-04-28 15:49 | -12.07033 | 32.62017 | 38917 ft | 491 kts | 14° |
| 2026-04-28 15:50 | -12.01763 | 32.63500 | 38906 ft | 491 kts | 14° |
| 2026-04-28 15:50 | -11.95153 | 32.65323 | 38910 ft | 491 kts | 14° |
| 2026-04-28 15:51 | -11.88547 | 32.67108 | 38907 ft | 491 kts | 13° |
| 2026-04-28 15:51 | -11.81934 | 32.68884 | 38906 ft | 491 kts | 13° |
| 2026-04-28 15:52 | -11.75326 | 32.70660 | 38896 ft | 491 kts | 13° |
| 2026-04-28 15:52 | -11.68763 | 32.72426 | 38894 ft | 491 kts | 14° |
| 2026-04-28 15:53 | -11.62151 | 32.74206 | 38903 ft | 491 kts | 14° |
| 2026-04-28 15:53 | -11.55549 | 32.75983 | 38902 ft | 491 kts | 14° |
| 2026-04-28 15:54 | -11.48942 | 32.77760 | 38895 ft | 491 kts | 14° |
| 2026-04-28 15:54 | -11.45682 | 32.78637 | 38895 ft | 491 kts | 14° |
| 2026-04-28 15:55 | -11.40263 | 32.80093 | 38887 ft | 491 kts | 14° |
| 2026-04-28 15:55 | -11.33670 | 32.81861 | 38886 ft | 490 kts | 14° |
| 2026-04-28 15:56 | -11.27084 | 32.83629 | 38895 ft | 489 kts | 14° |
| 2026-04-28 15:56 | -11.20558 | 32.85382 | 38898 ft | 487 kts | 14° |
| 2026-04-28 15:57 | -11.14011 | 32.87140 | 38897 ft | 486 kts | 14° |
| 2026-04-28 15:57 | -11.07469 | 32.88894 | 38905 ft | 486 kts | 15° |
| 2026-04-28 15:58 | -11.00941 | 32.90641 | 38892 ft | 485 kts | 15° |
| 2026-04-28 15:58 | -10.94476 | 32.92373 | 38895 ft | 484 kts | 15° |
| 2026-04-28 15:59 | -10.89054 | 32.93826 | 38899 ft | 484 kts | 15° |
| 2026-04-28 15:59 | -10.84710 | 32.94989 | 38913 ft | 484 kts | 15° |
| 2026-04-28 16:00 | -10.81229 | 32.95921 | 38911 ft | 484 kts | 15° |
| 2026-04-28 16:00 | -10.73671 | 32.97943 | 38929 ft | 483 kts | 14° |
| 2026-04-28 16:01 | -10.67173 | 32.99681 | 38915 ft | 483 kts | 15° |
| 2026-04-28 16:01 | -10.60671 | 33.01418 | 38924 ft | 483 kts | 14° |
| 2026-04-28 16:02 | -10.55269 | 33.02861 | 38922 ft | 483 kts | 15° |
| 2026-04-28 16:02 | -10.47717 | 33.04877 | 38931 ft | 483 kts | 15° |
| 2026-04-28 16:03 | -10.41225 | 33.06611 | 38958 ft | 482 kts | 14° |
| 2026-04-28 16:03 | -10.34735 | 33.08343 | 38946 ft | 482 kts | 14° |
| 2026-04-28 16:04 | -10.28257 | 33.10070 | 38949 ft | 481 kts | 14° |
| 2026-04-28 16:04 | -10.25023 | 33.10932 | 38954 ft | 481 kts | 14° |
| 2026-04-28 16:05 | -10.21366 | 33.11906 | 38964 ft | 480 kts | 14° |
| 2026-04-28 16:05 | -10.14944 | 33.13617 | 38962 ft | 480 kts | 14° |
| 2026-04-28 16:06 | -10.08490 | 33.15337 | 38962 ft | 480 kts | 14° |
| 2026-04-28 16:06 | -10.02038 | 33.17056 | 38982 ft | 479 kts | 14° |
| 2026-04-28 16:07 | -9.95599 | 33.18768 | 38970 ft | 478 kts | 14° |
| 2026-04-28 16:08 | -9.85985 | 33.21324 | 38977 ft | 478 kts | 14° |
| 2026-04-28 16:08 | -9.79555 | 33.23034 | 38977 ft | 478 kts | 14° |
| 2026-04-28 16:09 | -9.69916 | 33.25595 | 38972 ft | 477 kts | 14° |
| 2026-04-28 16:10 | -9.65041 | 33.26890 | 38992 ft | 477 kts | 14° |
| 2026-04-28 16:10 | -9.56055 | 33.29276 | 38977 ft | 478 kts | 14° |
| 2026-04-28 16:11 | -9.43204 | 33.32654 | 38997 ft | 477 kts | 13° |
| 2026-04-28 16:12 | -9.33591 | 33.35104 | 38992 ft | 477 kts | 13° |
| 2026-04-28 16:13 | -9.23947 | 33.37600 | 38999 ft | 477 kts | 14° |
| 2026-04-28 16:14 | -9.11098 | 33.40939 | 39002 ft | 476 kts | 13° |
| 2026-04-28 16:15 | -9.02950 | 33.43051 | 38995 ft | 476 kts | 14° |
| 2026-04-28 16:15 | -8.96542 | 33.44711 | 38982 ft | 475 kts | 14° |
| 2026-04-28 16:16 | -8.87181 | 33.47815 | 39001 ft | 475 kts | 24° |
| 2026-04-28 16:17 | -8.78272 | 33.52203 | 38977 ft | 475 kts | 25° |
| 2026-04-28 16:17 | -8.72317 | 33.55116 | 38959 ft | 475 kts | 24° |
| 2026-04-28 16:18 | -8.66322 | 33.57936 | 38936 ft | 476 kts | 24° |
| 2026-04-28 16:18 | -8.60338 | 33.60707 | 38951 ft | 476 kts | 24° |
| 2026-04-28 16:19 | -8.54325 | 33.63491 | 38921 ft | 476 kts | 24° |
| 2026-04-28 16:19 | -8.50297 | 33.65360 | 38932 ft | 476 kts | 24° |
| 2026-04-28 16:20 | -8.47242 | 33.66779 | 38918 ft | 476 kts | 24° |
| 2026-04-28 16:20 | -8.41240 | 33.69571 | 38906 ft | 475 kts | 24° |
| 2026-04-28 16:21 | -8.35282 | 33.72344 | 38911 ft | 474 kts | 24° |
| 2026-04-28 16:21 | -8.29296 | 33.75128 | 38910 ft | 473 kts | 24° |
| 2026-04-28 16:22 | -8.23317 | 33.77904 | 38923 ft | 473 kts | 24° |
| 2026-04-28 16:22 | -8.17334 | 33.80682 | 38923 ft | 473 kts | 24° |
| 2026-04-28 16:23 | -8.11395 | 33.83437 | 38922 ft | 473 kts | 24° |
| 2026-04-28 16:23 | -8.05420 | 33.86211 | 38927 ft | 473 kts | 24° |
| 2026-04-28 16:24 | -7.99445 | 33.88983 | 38929 ft | 473 kts | 24° |
| 2026-04-28 16:24 | -7.95483 | 33.90821 | 38927 ft | 473 kts | 24° |
| 2026-04-28 16:25 | -7.92113 | 33.92383 | 38928 ft | 472 kts | 24° |
| 2026-04-28 16:25 | -7.86197 | 33.95125 | 38929 ft | 472 kts | 25° |
| 2026-04-28 16:26 | -7.80224 | 33.97889 | 38926 ft | 472 kts | 25° |
| 2026-04-28 16:26 | -7.74257 | 34.00654 | 38922 ft | 472 kts | 25° |
| 2026-04-28 16:27 | -7.68304 | 34.03413 | 38924 ft | 471 kts | 25° |
| 2026-04-28 16:28 | -7.59410 | 34.07532 | 38921 ft | 471 kts | 25° |
| 2026-04-28 16:28 | -7.53464 | 34.10283 | 38915 ft | 470 kts | 25° |
| 2026-04-28 16:29 | -7.44554 | 34.14405 | 38910 ft | 470 kts | 25° |
| 2026-04-28 16:30 | -7.40171 | 34.16432 | 38904 ft | 469 kts | 25° |
| 2026-04-28 16:30 | -7.34184 | 34.19199 | 38907 ft | 469 kts | 25° |
| 2026-04-28 16:31 | -7.28252 | 34.21941 | 38893 ft | 469 kts | 25° |
| 2026-04-28 16:31 | -7.22315 | 34.24685 | 38895 ft | 470 kts | 25° |
| 2026-04-28 16:32 | -7.16405 | 34.27415 | 38895 ft | 471 kts | 25° |
| 2026-04-28 16:32 | -7.07459 | 34.31546 | 38893 ft | 473 kts | 25° |
| 2026-04-28 16:33 | -7.02485 | 34.33842 | 38893 ft | 474 kts | 25° |
| 2026-04-28 16:33 | -6.95471 | 34.37078 | 38891 ft | 475 kts | 25° |
| 2026-04-28 16:34 | -6.89464 | 34.39849 | 38891 ft | 475 kts | 25° |
| 2026-04-28 16:34 | -6.85486 | 34.41683 | 38893 ft | 475 kts | 25° |
| 2026-04-28 16:35 | -6.82536 | 34.43043 | 38884 ft | 476 kts | 25° |
| 2026-04-28 16:35 | -6.76525 | 34.45815 | 38885 ft | 475 kts | 25° |
| 2026-04-28 16:36 | -6.70554 | 34.48568 | 38904 ft | 474 kts | 25° |
| 2026-04-28 16:36 | -6.64561 | 34.51329 | 38882 ft | 473 kts | 25° |
| 2026-04-28 16:37 | -6.58591 | 34.54079 | 38881 ft | 471 kts | 25° |
| 2026-04-28 16:38 | -6.49692 | 34.58178 | 38886 ft | 468 kts | 25° |
| 2026-04-28 16:38 | -6.43813 | 34.60885 | 38888 ft | 467 kts | 25° |
| 2026-04-28 16:39 | -6.37910 | 34.63601 | 38887 ft | 466 kts | 25° |
| 2026-04-28 16:39 | -6.32008 | 34.66317 | 38886 ft | 466 kts | 25° |
| 2026-04-28 16:40 | -6.30650 | 34.66942 | 38887 ft | 466 kts | 25° |
| 2026-04-28 16:40 | -6.25003 | 34.69539 | 38888 ft | 467 kts | 25° |
| 2026-04-28 16:41 | -6.19136 | 34.72237 | 38892 ft | 467 kts | 25° |
| 2026-04-28 16:41 | -6.13216 | 34.74960 | 38893 ft | 468 kts | 25° |
| 2026-04-28 16:42 | -6.07296 | 34.77682 | 38889 ft | 469 kts | 25° |
| 2026-04-28 16:42 | -6.01362 | 34.80409 | 38887 ft | 469 kts | 25° |
| 2026-04-28 16:43 | -5.95462 | 34.83119 | 38893 ft | 469 kts | 25° |
| 2026-04-28 16:43 | -5.89531 | 34.85844 | 38895 ft | 469 kts | 25° |
| 2026-04-28 16:44 | -5.83595 | 34.88571 | 38888 ft | 469 kts | 25° |
| 2026-04-28 16:44 | -5.77662 | 34.91295 | 38892 ft | 468 kts | 25° |
| 2026-04-28 16:45 | -5.76358 | 34.91894 | 38893 ft | 468 kts | 25° |
| 2026-04-28 16:45 | -5.70916 | 34.94394 | 38887 ft | 468 kts | 25° |
| 2026-04-28 16:46 | -5.65004 | 34.97110 | 38888 ft | 467 kts | 25° |
| 2026-04-28 16:46 | -5.59091 | 34.99828 | 38897 ft | 467 kts | 24° |
| 2026-04-28 16:47 | -5.53227 | 35.02525 | 38896 ft | 467 kts | 24° |
| 2026-04-28 16:47 | -5.47326 | 35.05234 | 38896 ft | 466 kts | 24° |
| 2026-04-28 16:48 | -5.41428 | 35.07940 | 38895 ft | 466 kts | 24° |
| 2026-04-28 16:48 | -5.35525 | 35.10649 | 38906 ft | 466 kts | 24° |
| 2026-04-28 16:49 | -5.29625 | 35.13357 | 38900 ft | 466 kts | 24° |
| 2026-04-28 16:49 | -5.23772 | 35.16042 | 38895 ft | 466 kts | 25° |
| 2026-04-28 16:50 | -5.22249 | 35.16741 | 38900 ft | 466 kts | 25° |
| 2026-04-28 16:50 | -5.16352 | 35.19448 | 38906 ft | 465 kts | 25° |
| 2026-04-28 16:51 | -5.10468 | 35.22139 | 38910 ft | 465 kts | 25° |
| 2026-04-28 16:51 | -5.04617 | 35.24812 | 38907 ft | 465 kts | 25° |
| 2026-04-28 16:52 | -4.98742 | 35.27496 | 38902 ft | 466 kts | 25° |
| 2026-04-28 16:52 | -4.92836 | 35.30196 | 38911 ft | 467 kts | 25° |
| 2026-04-28 16:53 | -4.86953 | 35.32886 | 38926 ft | 468 kts | 25° |
| 2026-04-28 16:53 | -4.81019 | 35.35598 | 38919 ft | 468 kts | 25° |
| 2026-04-28 16:54 | -4.75085 | 35.38310 | 38915 ft | 469 kts | 25° |
| 2026-04-28 16:54 | -4.69182 | 35.41007 | 38926 ft | 470 kts | 25° |
| 2026-04-28 16:55 | -4.67589 | 35.41735 | 38920 ft | 470 kts | 25° |
| 2026-04-28 16:55 | -4.61684 | 35.44432 | 38925 ft | 469 kts | 25° |
| 2026-04-28 16:56 | -4.55747 | 35.47143 | 38934 ft | 469 kts | 25° |
| 2026-04-28 16:56 | -4.49852 | 35.49834 | 38937 ft | 468 kts | 25° |
| 2026-04-28 16:57 | -4.43979 | 35.52515 | 38943 ft | 468 kts | 26° |
| 2026-04-28 16:57 | -4.38061 | 35.55218 | 38952 ft | 467 kts | 26° |
| 2026-04-28 16:58 | -4.32148 | 35.57918 | 38937 ft | 467 kts | 26° |
| 2026-04-28 16:58 | -4.26230 | 35.60620 | 38946 ft | 467 kts | 26° |
| 2026-04-28 16:59 | -4.20305 | 35.63298 | 38942 ft | 467 kts | 25° |
| 2026-04-28 16:59 | -4.14363 | 35.65948 | 38923 ft | 467 kts | 25° |
| 2026-04-28 17:00 | -4.13188 | 35.66472 | 38925 ft | 467 kts | 25° |
| 2026-04-28 17:00 | -4.07322 | 35.69094 | 38936 ft | 467 kts | 25° |
| 2026-04-28 17:01 | -4.01381 | 35.71756 | 38936 ft | 468 kts | 26° |
| 2026-04-28 17:01 | -3.95447 | 35.74426 | 38922 ft | 467 kts | 26° |
| 2026-04-28 17:02 | -3.89547 | 35.77160 | 38908 ft | 467 kts | 27° |
| 2026-04-28 17:02 | -3.83657 | 35.79909 | 38918 ft | 467 kts | 26° |
| 2026-04-28 17:03 | -3.74854 | 35.83995 | 38919 ft | 467 kts | 26° |
| 2026-04-28 17:03 | -3.68968 | 35.86720 | 38920 ft | 466 kts | 27° |
| 2026-04-28 17:04 | -3.60751 | 35.90526 | 38933 ft | 466 kts | 27° |
| 2026-04-28 17:05 | -3.56371 | 35.92554 | 38931 ft | 466 kts | 27° |
| 2026-04-28 17:06 | -3.47527 | 35.96609 | 38931 ft | 466 kts | 26° |
| 2026-04-28 17:06 | -3.38666 | 36.00645 | 38944 ft | 466 kts | 26° |
| 2026-04-28 17:07 | -3.32766 | 36.03339 | 38960 ft | 466 kts | 26° |
| 2026-04-28 17:07 | -3.26907 | 36.06015 | 38950 ft | 466 kts | 26° |
| 2026-04-28 17:08 | -3.21006 | 36.08710 | 38965 ft | 466 kts | 26° |
| 2026-04-28 17:08 | -3.15100 | 36.11405 | 38964 ft | 467 kts | 26° |
| 2026-04-28 17:09 | -3.09156 | 36.14030 | 38970 ft | 467 kts | 24° |
| 2026-04-28 17:09 | -3.05169 | 36.15653 | 38977 ft | 467 kts | 24° |
| 2026-04-28 17:10 | -3.01254 | 36.17223 | 38973 ft | 467 kts | 24° |
| 2026-04-28 17:10 | -2.95225 | 36.19673 | 38874 ft | 468 kts | 24° |
| 2026-04-28 17:11 | -2.89212 | 36.22153 | 38801 ft | 465 kts | 24° |
| 2026-04-28 17:11 | -2.83274 | 36.24608 | 38807 ft | 465 kts | 24° |
| 2026-04-28 17:12 | -2.77288 | 36.27075 | 38806 ft | 465 kts | 24° |
| 2026-04-28 17:12 | -2.71312 | 36.29536 | 38802 ft | 465 kts | 24° |
| 2026-04-28 17:13 | -2.65320 | 36.32005 | 38817 ft | 465 kts | 24° |
| 2026-04-28 17:13 | -2.59342 | 36.34468 | 38819 ft | 465 kts | 24° |
| 2026-04-28 17:14 | -2.53393 | 36.36918 | 38822 ft | 465 kts | 24° |
| 2026-04-28 17:14 | -2.49389 | 36.38567 | 38834 ft | 466 kts | 24° |
| 2026-04-28 17:15 | -2.46197 | 36.39882 | 38819 ft | 466 kts | 24° |
| 2026-04-28 17:15 | -2.40193 | 36.42356 | 38834 ft | 466 kts | 24° |
| 2026-04-28 17:16 | -2.34201 | 36.44829 | 38836 ft | 465 kts | 25° |
| 2026-04-28 17:16 | -2.28782 | 36.48114 | 38857 ft | 458 kts | 39° |
| 2026-04-28 17:17 | -2.23760 | 36.52052 | 38851 ft | 460 kts | 39° |
| 2026-04-28 17:17 | -2.18500 | 36.55708 | 38805 ft | 459 kts | 35° |
| 2026-04-28 17:18 | -2.15826 | 36.57439 | 38354 ft | 457 kts | 34° |
| 2026-04-28 17:18 | -2.13165 | 36.59166 | 37809 ft | 455 kts | 35° |
| 2026-04-28 17:18 | -2.10533 | 36.60905 | 37306 ft | 452 kts | 35° |
| 2026-04-28 17:18 | -2.07927 | 36.62656 | 36824 ft | 450 kts | 36° |
| 2026-04-28 17:19 | -2.05349 | 36.64411 | 36372 ft | 447 kts | 36° |
| 2026-04-28 17:19 | -2.02844 | 36.66129 | 35939 ft | 445 kts | 36° |
| 2026-04-28 17:19 | -2.00298 | 36.67880 | 35487 ft | 442 kts | 36° |
| 2026-04-28 17:19 | -1.99443 | 36.68469 | 35339 ft | 441 kts | 36° |
| 2026-04-28 17:20 | -1.98556 | 36.69079 | 35182 ft | 441 kts | 36° |
| 2026-04-28 17:20 | -1.96882 | 36.70230 | 34894 ft | 439 kts | 36° |
| 2026-04-28 17:20 | -1.93530 | 36.72532 | 34320 ft | 436 kts | 36° |
| 2026-04-28 17:20 | -1.91029 | 36.74247 | 33866 ft | 435 kts | 36° |
| 2026-04-28 17:21 | -1.88545 | 36.75950 | 33443 ft | 432 kts | 36° |
| 2026-04-28 17:21 | -1.86079 | 36.77639 | 33037 ft | 428 kts | 36° |
| 2026-04-28 17:21 | -1.83662 | 36.79294 | 32620 ft | 425 kts | 36° |
| 2026-04-28 17:22 | -1.78819 | 36.82611 | 31753 ft | 421 kts | 36° |
| 2026-04-28 17:22 | -1.76419 | 36.84255 | 31318 ft | 419 kts | 36° |
| 2026-04-28 17:22 | -1.74063 | 36.85869 | 30933 ft | 417 kts | 36° |
| 2026-04-28 17:23 | -1.69287 | 36.89142 | 30115 ft | 413 kts | 36° |
| 2026-04-28 17:23 | -1.66914 | 36.90768 | 29965 ft | 414 kts | 36° |
| 2026-04-28 17:23 | -1.62169 | 36.94019 | 29931 ft | 412 kts | 36° |
| 2026-04-28 17:24 | -1.57479 | 36.97233 | 29965 ft | 412 kts | 36° |
| 2026-04-28 17:24 | -1.54312 | 36.99403 | 29947 ft | 413 kts | 36° |
| 2026-04-28 17:25 | -1.48543 | 37.03140 | 29968 ft | 413 kts | 32° |
| 2026-04-28 17:26 | -1.43609 | 37.05999 | 29948 ft | 412 kts | 32° |
| 2026-04-28 17:26 | -1.41122 | 37.07442 | 29749 ft | 417 kts | 32° |
| 2026-04-28 17:26 | -1.38607 | 37.08919 | 29065 ft | 423 kts | 32° |
| 2026-04-28 17:26 | -1.36052 | 37.10434 | 28040 ft | 432 kts | 32° |
| 2026-04-28 17:27 | -1.33436 | 37.11994 | 27015 ft | 442 kts | 32° |
| 2026-04-28 17:27 | -1.30832 | 37.13544 | 26255 ft | 445 kts | 32° |
| 2026-04-28 17:27 | -1.28135 | 37.15147 | 25493 ft | 446 kts | 32° |
| 2026-04-28 17:27 | -1.25556 | 37.16774 | 24819 ft | 446 kts | 36° |
| 2026-04-28 17:28 | -1.23115 | 37.18642 | 24203 ft | 436 kts | 42° |
| 2026-04-28 17:28 | -1.19796 | 37.23160 | 22225 ft | 420 kts | 73° |
| 2026-04-28 17:28 | -1.19073 | 37.25965 | 21089 ft | 416 kts | 77° |
| 2026-04-28 17:29 | -1.18102 | 37.28680 | 20033 ft | 414 kts | 62° |
| 2026-04-28 17:29 | -1.16541 | 37.31077 | 19116 ft | 409 kts | 53° |
| 2026-04-28 17:29 | -1.14948 | 37.33135 | 18342 ft | 404 kts | 52° |
| 2026-04-28 17:30 | -1.14157 | 37.34143 | 17879 ft | 402 kts | 52° |
| 2026-04-28 17:30 | -1.10249 | 37.37893 | 16318 ft | 392 kts | 22° |
| 2026-04-28 17:30 | -1.07563 | 37.38410 | 16133 ft | 399 kts | 357° |
| 2026-04-28 17:31 | -1.04916 | 37.37811 | 15971 ft | 395 kts | 335° |
| 2026-04-28 17:31 | -1.00966 | 37.34257 | 15317 ft | 383 kts | 299° |
| 2026-04-28 17:32 | -1.00376 | 37.29157 | 14280 ft | 379 kts | 249° |
| 2026-04-28 17:32 | -1.01761 | 37.26957 | 13799 ft | 376 kts | 223° |
| 2026-04-28 17:32 | -1.03859 | 37.25473 | 13287 ft | 366 kts | 210° |
| 2026-04-28 17:32 | -1.06021 | 37.24176 | 12677 ft | 361 kts | 211° |
| 2026-04-28 17:33 | -1.08177 | 37.22843 | 12168 ft | 367 kts | 211° |
| 2026-04-28 17:33 | -1.10370 | 37.21515 | 11469 ft | 368 kts | 211° |
| 2026-04-28 17:33 | -1.12555 | 37.20188 | 10743 ft | 360 kts | 212° |
| 2026-04-28 17:33 | -1.13885 | 37.19247 | 10337 ft | 349 kts | 220° |
| 2026-04-28 17:34 | -1.15873 | 37.16915 | 9463 ft | 310 kts | 236° |
| 2026-04-28 17:34 | -1.16994 | 37.15148 | 8605 ft | 294 kts | 239° |
| 2026-04-28 17:34 | -1.17748 | 37.13341 | 8459 ft | 273 kts | 252° |
| 2026-04-28 17:35 | -1.18044 | 37.12362 | 8446 ft | 253 kts | 253° |
| 2026-04-28 17:35 | -1.18645 | 37.10822 | 7982 ft | 229 kts | 238° |
| 2026-04-28 17:35 | -1.19577 | 37.09574 | 7394 ft | 215 kts | 229° |
| 2026-04-28 17:35 | -1.20462 | 37.08492 | 7208 ft | 186 kts | 231° |
| 2026-04-28 17:36 | -1.21184 | 37.07492 | 6979 ft | 171 kts | 234° |
| 2026-04-28 17:36 | -1.21810 | 37.06522 | 6686 ft | 168 kts | 238° |
| 2026-04-28 17:36 | -1.22403 | 37.05500 | 6568 ft | 170 kts | 238° |
| 2026-04-28 17:36 | -1.23105 | 37.04455 | 6775 ft | 190 kts | 236° |
| 2026-04-28 17:37 | -1.23962 | 37.03381 | 7016 ft | 208 kts | 229° |
| 2026-04-28 17:37 | -1.24854 | 37.02336 | 6877 ft | 185 kts | 229° |
| 2026-04-28 17:37 | -1.25657 | 37.01416 | 6634 ft | 169 kts | 230° |
| 2026-04-28 17:37 | -1.26353 | 37.00498 | 6692 ft | 163 kts | 234° |
| 2026-04-28 17:38 | -1.27045 | 36.99494 | 6852 ft | 186 kts | 233° |
| 2026-04-28 17:38 | -1.27838 | 36.98453 | 6672 ft | 191 kts | 233° |
| 2026-04-28 17:38 | -1.28263 | 36.97839 | 6500 ft | 192 kts | 229° |
| 2026-04-28 17:38 | -1.29103 | 36.96635 | 6199 ft | 175 kts | 230° |
| 2026-04-28 17:39 | -1.29830 | 36.95671 | 5857 ft | 172 kts | 232° |
| 2026-04-28 17:39 | -1.30515 | 36.94713 | 5452 ft | 167 kts | 228° |
| 2026-04-28 17:39 | -1.31183 | 36.93815 | 5311 ft | 155 kts | 230° |
| 2026-04-28 17:40 | -1.31498 | 36.93362 | 5314 ft | 148 kts | 234° |
| 2026-04-28 17:40 | -1.32060 | 36.92595 | 5341 ft | 108 kts | 233° |
| 2026-04-28 17:40 | -1.32224 | 36.92375 | 5341 ft | 0 kts | 232° |
| 2026-04-28 17:41 | -1.32250 | 36.92340 | 5341 ft | 18 kts | 232° |
| 2026-04-28 17:41 | -1.32362 | 36.92185 | 5345 ft | 37 kts | 234° |
| 2026-04-28 17:41 | -1.32535 | 36.91944 | 5347 ft | 31 kts | 234° |
| 2026-04-28 17:41 | -1.32615 | 36.91828 | 5349 ft | 20 kts | 236° |
| 2026-04-28 17:42 | -1.32705 | 36.91724 | 5351 ft | 20 kts | 219° |
| 2026-04-28 17:42 | -1.32791 | 36.91702 | 5351 ft | 20 kts | 172° |
| 2026-04-28 17:42 | -1.32845 | 36.91722 | 5353 ft | 0 kts | 149° |
| 2026-04-28 17:43 | -1.32906 | 36.91760 | 5353 ft | 26 kts | 148° |
| 2026-04-28 17:43 | -1.33122 | 36.91923 | 5352 ft | 51 kts | 133° |